Time;durP1;ratioP1;P1;durP2;ratioP2;P2;SDS_P1;SDS_P2;PMS_P1;PMS_P2;Temp;Humidity;BMP_temperature;BMP_pressure;BME280_temperature;BME280_humidity;BME280_pressure;Samples;Min_cycle;Max_cycle;Signal;HPM_P1;HPM_P2
2021/07/23 00:02:23;;;;;;;26.85;13.95;;;18.50;99.90;;;;;;4975985;28;20510;-89
2021/07/23 00:04:49;;;;;;;23.98;13.63;;;18.40;99.90;;;;;;4977388;28;20079;-88
2021/07/23 00:07:15;;;;;;;22.50;13.15;;;18.40;99.90;;;;;;4983600;28;20480;-88
2021/07/23 00:09:41;;;;;;;25.50;13.50;;;18.30;99.90;;;;;;4985401;28;20133;-89
2021/07/23 00:12:06;;;;;;;24.45;13.80;;;18.30;99.90;;;;;;4987345;28;20039;-89
2021/07/23 00:14:32;;;;;;;24.70;13.50;;;18.30;99.90;;;;;;4986711;28;20046;-89
2021/07/23 00:16:58;;;;;;;28.55;13.68;;;18.20;99.90;;;;;;4983501;28;20138;-89
2021/07/23 00:19:24;;;;;;;29.80;14.75;;;18.20;99.90;;;;;;4982519;28;20023;-89
2021/07/23 00:21:50;;;;;;;27.95;13.95;;;18.10;99.90;;;;;;4980330;28;20023;-89
2021/07/23 00:24:16;;;;;;;22.92;13.77;;;18.10;99.90;;;;;;4976081;28;20499;-89
2021/07/23 00:26:41;;;;;;;25.48;14.05;;;18.10;99.90;;;;;;4975991;28;20045;-89
2021/07/23 00:29:07;;;;;;;31.13;14.18;;;18.10;99.90;;;;;;4975838;28;20396;-88
2021/07/23 00:31:32;;;;;;;30.45;13.90;;;18.00;99.90;;;;;;4975506;28;20039;-89
2021/07/23 00:33:58;;;;;;;24.52;13.02;;;18.00;99.90;;;;;;4975612;28;20118;-88
2021/07/23 00:36:24;;;;;;;22.98;13.63;;;18.00;99.90;;;;;;4975601;28;20122;-89
2021/07/23 00:38:49;;;;;;;29.63;14.35;;;18.00;99.90;;;;;;4975250;28;20500;-89
2021/07/23 00:41:15;;;;;;;20.88;13.65;;;17.90;99.90;;;;;;4975099;28;20039;-89
2021/07/23 00:43:41;;;;;;;29.30;13.90;;;17.80;99.90;;;;;;4975047;28;20089;-89
2021/07/23 00:46:06;;;;;;;23.98;12.63;;;17.80;99.90;;;;;;4975110;28;20065;-88
2021/07/23 00:48:33;;;;;;;26.40;14.40;;;17.80;99.90;;;;;;4974961;28;20428;-89
2021/07/23 00:50:59;;;;;;;22.17;14.00;;;17.80;99.90;;;;;;4974661;28;20512;-89
2021/07/23 00:53:25;;;;;;;23.80;14.88;;;17.70;99.90;;;;;;4975335;28;20060;-89
2021/07/23 00:55:56;;;;;;;31.33;15.27;;;17.70;99.90;;;;;;4975154;28;20444;-89
2021/07/23 00:58:26;;;;;;;28.33;14.48;;;17.70;99.90;;;;;;4974827;28;20030;-88
2021/07/23 01:00:55;;;;;;;26.35;13.15;;;17.60;99.90;;;;;;4974979;28;20481;-89
2021/07/23 01:03:22;;;;;;;28.13;14.43;;;17.60;99.90;;;;;;4974864;28;20035;-89
2021/07/23 01:05:50;;;;;;;26.45;14.30;;;17.50;99.90;;;;;;4974647;28;20029;-89
2021/07/23 01:08:16;;;;;;;27.75;15.10;;;17.40;99.90;;;;;;4974520;28;20054;-89
2021/07/23 01:10:42;;;;;;;27.40;14.70;;;17.40;99.90;;;;;;4974721;28;20167;-90
2021/07/23 01:13:07;;;;;;;26.38;14.25;;;17.40;99.90;;;;;;4974677;28;20517;-89
2021/07/23 01:15:34;;;;;;;30.17;16.80;;;17.30;99.90;;;;;;4974437;28;20038;-88
2021/07/23 01:18:00;;;;;;;30.25;15.57;;;17.30;99.90;;;;;;4958321;28;20089;-89
2021/07/23 01:20:26;;;;;;;27.73;15.52;;;17.30;99.90;;;;;;4958221;28;20026;-89
2021/07/23 01:22:54;;;;;;;24.95;14.95;;;17.30;99.90;;;;;;4958122;28;20447;-88
2021/07/23 01:25:22;;;;;;;30.88;16.02;;;17.30;99.90;;;;;;4958021;28;20495;-89
2021/07/23 01:27:51;;;;;;;27.98;16.02;;;17.30;99.90;;;;;;4958287;28;20034;-88
2021/07/23 01:30:20;;;;;;;30.60;16.35;;;17.30;99.90;;;;;;4957818;28;20027;-89
2021/07/23 01:32:46;;;;;;;28.33;15.43;;;17.20;99.90;;;;;;4957516;28;20049;-89
2021/07/23 01:35:12;;;;;;;30.88;17.15;;;17.20;99.90;;;;;;4957528;28;20022;-89
2021/07/23 01:37:44;;;;;;;33.65;17.35;;;17.10;99.90;;;;;;4957420;28;20114;-90
2021/07/23 01:40:10;;;;;;;34.25;18.63;;;17.20;99.90;;;;;;4957592;28;20384;-89
2021/07/23 01:42:36;;;;;;;39.00;19.83;;;17.10;99.90;;;;;;4957271;28;20366;-88
2021/07/23 01:45:03;;;;;;;35.75;18.15;;;17.10;99.90;;;;;;4957479;28;20046;-88
2021/07/23 01:47:28;;;;;;;44.30;22.15;;;17.10;99.90;;;;;;4957101;28;20031;-89
2021/07/23 01:49:54;;;;;;;38.00;19.25;;;17.00;99.90;;;;;;4957174;28;20044;-88
2021/07/23 01:52:20;;;;;;;40.30;19.85;;;17.10;99.90;;;;;;4957009;28;20050;-89
2021/07/23 01:54:45;;;;;;;40.40;20.45;;;17.00;99.90;;;;;;4957684;28;20058;-88
2021/07/23 01:57:11;;;;;;;38.78;20.63;;;16.90;99.90;;;;;;4957688;28;20118;-88
2021/07/23 01:59:38;;;;;;;33.67;18.17;;;16.90;99.90;;;;;;4957695;28;20073;-88
2021/07/23 02:02:03;;;;;;;36.45;18.55;;;16.80;99.90;;;;;;4957152;28;20117;-89
2021/07/23 02:04:29;;;;;;;32.83;18.70;;;16.80;99.90;;;;;;4957187;28;20140;-90
2021/07/23 02:06:55;;;;;;;35.03;18.73;;;16.80;99.90;;;;;;4957731;28;20085;-90
2021/07/23 02:09:20;;;;;;;37.38;18.90;;;16.80;99.90;;;;;;4957641;28;20027;-90
2021/07/23 02:11:46;;;;;;;39.78;18.85;;;16.80;99.90;;;;;;4957890;28;20126;-90
2021/07/23 02:14:12;;;;;;;39.28;18.98;;;16.80;99.90;;;;;;4957748;28;20027;-90
2021/07/23 02:16:38;;;;;;;40.92;20.13;;;16.80;99.90;;;;;;4963753;28;20055;-91
2021/07/23 02:19:06;;;;;;;40.15;19.95;;;16.80;99.90;;;;;;4973952;28;20030;-92
2021/07/23 02:21:34;;;;;;;39.95;18.90;;;16.80;99.90;;;;;;4973710;28;20041;-91
2021/07/23 02:24:00;;;;;;;43.00;20.05;;;16.80;99.90;;;;;;4973571;28;20472;-91
2021/07/23 02:26:25;;;;;;;43.80;21.33;;;16.80;99.90;;;;;;4973848;28;20045;-91
2021/07/23 02:28:51;;;;;;;39.50;19.92;;;16.70;99.90;;;;;;4973820;28;20022;-91
2021/07/23 02:31:17;;;;;;;44.13;20.90;;;16.70;99.90;;;;;;4973745;28;20031;-92
2021/07/23 02:33:42;;;;;;;47.85;22.80;;;16.70;99.90;;;;;;4973717;28;20051;-91
2021/07/23 02:36:08;;;;;;;52.40;23.50;;;16.70;99.90;;;;;;4973850;28;20023;-91
2021/07/23 02:38:35;;;;;;;51.28;23.40;;;16.70;99.90;;;;;;4973779;28;20034;-90
2021/07/23 02:41:01;;;;;;;55.67;24.40;;;16.70;99.90;;;;;;4973699;28;20034;-91
2021/07/23 02:43:27;;;;;;;54.17;25.02;;;16.60;99.90;;;;;;4973526;28;20033;-91
2021/07/23 02:45:53;;;;;;;51.33;23.55;;;16.60;99.90;;;;;;4974216;28;20033;-91
2021/07/23 02:48:18;;;;;;;50.95;26.17;;;16.60;99.90;;;;;;4973515;28;20023;-91
2021/07/23 02:50:44;;;;;;;52.55;24.48;;;16.60;99.90;;;;;;4973348;28;20539;-90
2021/07/23 02:53:10;;;;;;;42.13;20.08;;;16.60;99.90;;;;;;4973719;28;20058;-91
2021/07/23 02:55:36;;;;;;;41.78;22.42;;;16.60;99.90;;;;;;4973541;28;20045;-91
2021/07/23 02:58:03;;;;;;;50.17;24.42;;;16.70;99.90;;;;;;4973361;28;20027;-90
2021/07/23 03:00:28;;;;;;;49.83;23.73;;;16.70;99.90;;;;;;4973326;28;20030;-91
2021/07/23 03:02:54;;;;;;;48.45;22.92;;;16.70;99.90;;;;;;4973385;28;20038;-91
2021/07/23 03:05:20;;;;;;;45.97;22.50;;;16.70;99.90;;;;;;4973484;28;20045;-90
2021/07/23 03:07:51;;;;;;;46.45;23.13;;;16.70;99.90;;;;;;4973402;28;20122;-90
2021/07/23 03:10:17;;;;;;;42.83;22.23;;;16.70;99.90;;;;;;4973435;28;20034;-90
2021/07/23 03:12:42;;;;;;;47.97;23.42;;;16.60;99.90;;;;;;4973431;28;20039;-90
2021/07/23 03:15:10;;;;;;;53.30;24.02;;;16.60;99.90;;;;;;4976064;28;20023;-90
2021/07/23 03:17:36;;;;;;;46.72;23.50;;;16.60;99.90;;;;;;4976467;28;20050;-90
2021/07/23 03:20:02;;;;;;;49.53;24.25;;;16.50;99.90;;;;;;4977620;28;20022;-90
2021/07/23 03:22:29;;;;;;;45.35;21.33;;;16.50;99.90;;;;;;4976788;28;20027;-91
2021/07/23 03:24:55;;;;;;;50.33;23.08;;;16.50;99.90;;;;;;4976665;28;20034;-90
2021/07/23 03:27:22;;;;;;;48.97;22.08;;;16.50;99.90;;;;;;4976456;28;20484;-90
2021/07/23 03:29:47;;;;;;;50.40;23.15;;;16.60;99.90;;;;;;4976376;28;20030;-89
2021/07/23 03:32:13;;;;;;;55.72;23.30;;;16.50;99.90;;;;;;4976056;28;20039;-90
2021/07/23 03:34:39;;;;;;;49.00;23.50;;;16.60;99.90;;;;;;4976790;28;20118;-90
2021/07/23 03:37:05;;;;;;;47.67;22.25;;;16.60;99.90;;;;;;4977018;28;20035;-90
2021/07/23 03:39:30;;;;;;;53.10;24.30;;;16.60;99.90;;;;;;4979454;28;20049;-90
2021/07/23 03:41:56;;;;;;;52.42;24.30;;;16.60;99.90;;;;;;4984242;28;20369;-90
2021/07/23 03:44:22;;;;;;;49.78;22.80;;;16.60;99.90;;;;;;4985499;28;20023;-89
2021/07/23 03:46:48;;;;;;;49.88;21.38;;;16.70;99.90;;;;;;4982431;28;20031;-90
2021/07/23 03:49:14;;;;;;;49.05;24.10;;;16.60;99.90;;;;;;4982710;28;20078;-90
2021/07/23 03:51:39;;;;;;;46.20;21.88;;;16.60;99.90;;;;;;4978123;28;20137;-90
2021/07/23 03:54:05;;;;;;;49.22;21.73;;;16.60;99.90;;;;;;4977059;28;20099;-90
2021/07/23 03:56:31;;;;;;;50.28;22.98;;;16.60;99.90;;;;;;4976464;28;20393;-89
2021/07/23 03:58:56;;;;;;;49.20;22.17;;;16.60;99.90;;;;;;4976630;28;20022;-90
2021/07/23 04:01:22;;;;;;;49.00;25.25;;;16.60;99.90;;;;;;4976103;28;20396;-90
2021/07/23 04:03:48;;;;;;;57.50;25.05;;;16.60;99.90;;;;;;4976242;28;20034;-90
2021/07/23 04:06:14;;;;;;;49.00;23.50;;;16.60;99.90;;;;;;4976180;28;20468;-89
2021/07/23 04:08:40;;;;;;;50.13;22.38;;;16.60;99.90;;;;;;4977675;28;20027;-89
2021/07/23 04:11:06;;;;;;;51.05;23.50;;;16.50;99.90;;;;;;4975850;28;20049;-90
2021/07/23 04:13:32;;;;;;;52.08;22.88;;;16.50;99.90;;;;;;4975759;28;20019;-90
2021/07/23 04:15:57;;;;;;;48.08;22.10;;;16.50;99.90;;;;;;4975171;28;20481;-90
2021/07/23 04:18:23;;;;;;;50.05;22.95;;;16.50;99.90;;;;;;4975658;28;20030;-90
2021/07/23 04:20:49;;;;;;;51.00;22.98;;;16.50;99.90;;;;;;4975317;28;20173;-90
2021/07/23 04:23:14;;;;;;;51.42;24.10;;;16.50;99.90;;;;;;4975250;28;20209;-89
2021/07/23 04:25:40;;;;;;;55.92;23.27;;;16.40;99.90;;;;;;4974596;28;20499;-90
2021/07/23 04:28:06;;;;;;;51.42;24.20;;;16.40;99.90;;;;;;4974827;28;20031;-90
2021/07/23 04:30:33;;;;;;;54.35;23.85;;;16.40;99.90;;;;;;4975025;28;20059;-90
2021/07/23 04:32:58;;;;;;;51.08;24.63;;;16.30;99.90;;;;;;4975640;28;20038;-90
2021/07/23 04:35:24;;;;;;;38.63;19.65;;;16.40;99.90;;;;;;4975705;28;20026;-90
2021/07/23 04:37:50;;;;;;;49.53;23.05;;;16.40;99.90;;;;;;4976506;28;20035;-90
2021/07/23 04:40:15;;;;;;;51.53;23.40;;;16.40;99.90;;;;;;4976486;28;20050;-89
2021/07/23 04:42:41;;;;;;;52.25;23.92;;;16.40;99.90;;;;;;4978420;28;20035;-90
2021/07/23 04:45:08;;;;;;;58.95;24.55;;;16.40;99.90;;;;;;4980487;28;20027;-90
2021/07/23 04:47:33;;;;;;;53.72;23.98;;;16.40;99.90;;;;;;4980023;28;20050;-89
2021/07/23 04:50:01;;;;;;;60.15;25.60;;;16.40;99.90;;;;;;4981676;28;20026;-89
2021/07/23 04:52:27;;;;;;;57.53;24.65;;;16.40;99.90;;;;;;4981388;28;20038;-90
2021/07/23 04:54:52;;;;;;;54.90;24.48;;;16.30;99.90;;;;;;4981201;28;20027;-89
2021/07/23 04:57:25;;;;;;;49.70;21.00;;;16.40;99.90;;;;;;4980976;28;20435;-89
2021/07/23 04:59:50;;;;;;;47.65;22.00;;;16.40;99.90;;;;;;4980932;28;20023;-90
2021/07/23 05:02:16;;;;;;;51.53;23.10;;;16.40;99.90;;;;;;4981508;28;20094;-90
2021/07/23 05:04:42;;;;;;;52.00;23.50;;;16.40;99.90;;;;;;4980875;28;20090;-90
2021/07/23 05:07:07;;;;;;;56.60;24.50;;;16.40;99.90;;;;;;4980818;28;20127;-90
2021/07/23 05:09:33;;;;;;;47.15;23.05;;;16.40;99.90;;;;;;4979812;28;20133;-89
2021/07/23 05:11:59;;;;;;;51.95;23.08;;;16.40;99.90;;;;;;4979193;28;20042;-90
2021/07/23 05:14:27;;;;;;;46.70;21.75;;;16.40;99.90;;;;;;4979601;28;20034;-90
2021/07/23 05:16:55;;;;;;;53.80;23.98;;;16.30;99.90;;;;;;4978813;28;20055;-89
2021/07/23 05:19:21;;;;;;;47.35;23.52;;;16.30;99.90;;;;;;4978770;28;20630;-90
2021/07/23 05:21:47;;;;;;;52.72;24.20;;;16.30;99.90;;;;;;4978193;28;20027;-90
2021/07/23 05:24:13;;;;;;;59.95;24.48;;;16.40;99.90;;;;;;4977701;28;20023;-90
2021/07/23 05:26:39;;;;;;;58.42;23.08;;;16.40;99.90;;;;;;4978323;28;20037;-89
2021/07/23 05:29:06;;;;;;;51.90;23.67;;;16.50;99.90;;;;;;4977553;28;20023;-90
2021/07/23 05:31:32;;;;;;;56.28;24.80;;;16.40;99.90;;;;;;4977348;28;20436;-89
2021/07/23 05:33:58;;;;;;;52.15;24.05;;;16.40;99.90;;;;;;4977152;28;20038;-90
2021/07/23 05:36:27;;;;;;;55.97;24.20;;;16.30;99.90;;;;;;4977232;28;20030;-89
2021/07/23 05:38:53;;;;;;;60.15;25.58;;;16.30;99.90;;;;;;4977153;28;20117;-90
2021/07/23 05:41:19;;;;;;;62.35;24.95;;;16.30;99.90;;;;;;4977882;28;20026;-90
2021/07/23 05:43:45;;;;;;;65.43;26.70;;;16.30;99.90;;;;;;4978152;28;20247;-90
2021/07/23 05:46:10;;;;;;;51.60;22.45;;;16.40;99.90;;;;;;4977176;28;20428;-91
2021/07/23 05:48:37;;;;;;;55.33;23.55;;;16.40;99.90;;;;;;4976081;28;20066;-90
2021/07/23 05:51:04;;;;;;;51.70;23.48;;;16.40;99.90;;;;;;4975736;28;20039;-90
2021/07/23 05:53:31;;;;;;;65.30;26.23;;;16.40;99.90;;;;;;4976582;28;20023;-91
2021/07/23 05:56:01;;;;;;;52.20;23.83;;;16.50;99.90;;;;;;4976177;28;20031;-90
2021/07/23 05:58:28;;;;;;;57.00;24.42;;;16.50;99.90;;;;;;4975773;28;20031;-90
2021/07/23 06:00:54;;;;;;;54.17;23.98;;;16.50;99.90;;;;;;4976145;28;20031;-90
2021/07/23 06:03:20;;;;;;;50.40;23.20;;;16.50;99.90;;;;;;4977834;28;20380;-90
2021/07/23 06:05:46;;;;;;;44.25;21.55;;;16.50;99.90;;;;;;4960365;28;20031;-90
2021/07/23 06:08:12;;;;;;;54.28;23.52;;;16.50;99.90;;;;;;4975840;28;20042;-90
2021/07/23 06:10:37;;;;;;;56.50;24.63;;;16.60;99.90;;;;;;4975843;28;20034;-90
2021/07/23 06:13:03;;;;;;;45.05;20.83;;;16.60;99.90;;;;;;4977157;28;20109;-90
2021/07/23 06:15:29;;;;;;;42.63;19.67;;;16.60;99.90;;;;;;4975589;28;20019;-90
2021/07/23 06:17:55;;;;;;;38.95;19.67;;;16.70;99.90;;;;;;4958314;28;20129;-90
2021/07/23 06:20:21;;;;;;;31.00;16.98;;;16.70;99.90;;;;;;4960087;28;20085;-90
2021/07/23 06:22:47;;;;;;;37.10;18.05;;;16.80;99.90;;;;;;4959630;28;20022;-90
2021/07/23 06:25:12;;;;;;;39.00;17.35;;;16.70;99.90;;;;;;4959417;28;20544;-89
2021/07/23 06:27:38;;;;;;;37.83;18.05;;;16.70;99.90;;;;;;4959797;28;20022;-89
2021/07/23 06:30:05;;;;;;;42.85;18.52;;;16.70;99.90;;;;;;4959315;28;20030;-90
2021/07/23 06:32:32;;;;;;;35.15;18.20;;;16.70;99.90;;;;;;4963111;28;20049;-90
2021/07/23 06:34:58;;;;;;;39.42;18.80;;;16.70;99.90;;;;;;4965560;28;20508;-90
2021/07/23 06:37:25;;;;;;;37.53;18.60;;;16.70;99.90;;;;;;4963708;28;20493;-90
2021/07/23 06:39:51;;;;;;;41.08;19.42;;;16.80;99.90;;;;;;4959657;28;20511;-90
2021/07/23 06:42:19;;;;;;;39.92;19.63;;;16.80;99.90;;;;;;4959542;28;20234;-90
2021/07/23 06:44:45;;;;;;;38.55;18.48;;;16.80;99.90;;;;;;4959111;28;20030;-91
2021/07/23 06:47:11;;;;;;;37.67;17.92;;;16.80;99.90;;;;;;4959346;28;20031;-90
2021/07/23 06:49:38;;;;;;;40.78;18.42;;;16.90;99.90;;;;;;4961034;28;20094;-90
2021/07/23 06:52:07;;;;;;;36.38;17.98;;;16.90;99.90;;;;;;4962717;28;20069;-91
2021/07/23 06:54:34;;;;;;;39.28;18.30;;;16.80;99.90;;;;;;4963387;28;20053;-90
2021/07/23 06:57:03;;;;;;;43.22;17.55;;;16.80;99.90;;;;;;4962765;28;20118;-91
2021/07/23 06:59:30;;;;;;;37.08;17.27;;;16.80;99.90;;;;;;4962711;28;20185;-90
2021/07/23 07:01:57;;;;;;;29.85;14.95;;;16.80;99.90;;;;;;4962311;28;20137;-90
2021/07/23 07:04:23;;;;;;;32.03;13.73;;;16.90;99.90;;;;;;4964214;28;20081;-89
2021/07/23 07:06:48;;;;;;;33.80;15.75;;;16.90;99.90;;;;;;4963259;28;20030;-90
2021/07/23 07:09:14;;;;;;;32.80;15.15;;;16.90;99.90;;;;;;4962258;28;20480;-90
2021/07/23 07:11:39;;;;;;;26.02;13.48;;;16.90;99.90;;;;;;4962211;28;20476;-90
2021/07/23 07:14:06;;;;;;;31.40;15.20;;;17.00;99.90;;;;;;4966243;28;20030;-89
2021/07/23 07:16:31;;;;;;;24.02;13.15;;;17.00;99.90;;;;;;4968439;28;20039;-89
2021/07/23 07:18:58;;;;;;;26.35;13.90;;;17.00;99.90;;;;;;4979794;28;20491;-90
2021/07/23 07:21:24;;;;;;;21.98;11.43;;;17.00;99.90;;;;;;4980660;28;20023;-90
2021/07/23 07:23:49;;;;;;;25.55;13.13;;;17.00;99.90;;;;;;4983752;28;20165;-91
2021/07/23 07:26:15;;;;;;;27.73;13.00;;;17.00;99.90;;;;;;4990938;28;20121;-90
2021/07/23 07:28:41;;;;;;;22.08;11.73;;;17.00;99.90;;;;;;4990437;28;20027;-90
2021/07/23 07:31:06;;;;;;;23.73;12.35;;;17.00;99.90;;;;;;4984408;28;20026;-90
2021/07/23 07:33:32;;;;;;;23.95;12.75;;;17.00;99.90;;;;;;4981767;28;20062;-90
2021/07/23 07:35:58;;;;;;;23.27;11.77;;;17.00;99.90;;;;;;4981165;28;20034;-90
2021/07/23 07:38:24;;;;;;;32.00;12.73;;;17.00;99.90;;;;;;4978892;28;20026;-91
2021/07/23 07:40:49;;;;;;;22.05;11.75;;;17.00;99.90;;;;;;4978845;28;20030;-91
2021/07/23 07:43:15;;;;;;;23.05;11.57;;;17.00;99.90;;;;;;4977946;28;20034;-91
2021/07/23 07:45:41;;;;;;;22.70;11.43;;;17.00;99.90;;;;;;4977207;28;20649;-90
2021/07/23 07:48:06;;;;;;;20.92;10.88;;;17.10;99.90;;;;;;4976771;28;20492;-90
2021/07/23 07:50:32;;;;;;;19.98;11.07;;;17.10;99.90;;;;;;4976714;28;20030;-88
2021/07/23 07:52:58;;;;;;;23.08;11.30;;;17.10;99.90;;;;;;4976027;28;20035;-89
2021/07/23 07:55:25;;;;;;;19.73;10.68;;;17.10;99.90;;;;;;4976849;28;20457;-89
2021/07/23 07:57:51;;;;;;;22.48;11.30;;;17.20;99.90;;;;;;4977049;28;20054;-91
2021/07/23 08:00:17;;;;;;;24.30;10.82;;;17.20;99.90;;;;;;4975093;28;20019;-90
2021/07/23 08:02:43;;;;;;;25.30;12.13;;;17.20;99.90;;;;;;4976363;28;20147;-91
2021/07/23 08:05:09;;;;;;;22.80;11.05;;;17.20;99.90;;;;;;4976509;28;20085;-91
2021/07/23 08:07:37;;;;;;;26.80;12.05;;;17.20;99.90;;;;;;4976768;28;20027;-90
2021/07/23 08:10:05;;;;;;;23.48;10.48;;;17.20;99.90;;;;;;4976793;28;20027;-90
2021/07/23 08:12:31;;;;;;;21.80;11.73;;;17.20;99.90;;;;;;4976974;28;20043;-90
2021/07/23 08:14:57;;;;;;;28.50;12.32;;;17.20;99.90;;;;;;4976796;28;20504;-91
2021/07/23 08:17:23;;;;;;;29.27;12.93;;;17.20;99.90;;;;;;4976854;28;20053;-90
2021/07/23 08:19:49;;;;;;;25.13;12.38;;;17.30;99.90;;;;;;4977008;28;20484;-91
2021/07/23 08:22:15;;;;;;;24.02;12.68;;;17.30;99.90;;;;;;4977017;28;20041;-91
2021/07/23 08:24:42;;;;;;;29.30;12.90;;;17.20;99.90;;;;;;4976958;28;20026;-91
2021/07/23 08:27:07;;;;;;;38.45;14.18;;;17.20;99.90;;;;;;4976886;28;20554;-91
2021/07/23 08:29:33;;;;;;;36.28;14.85;;;17.20;99.90;;;;;;4976385;28;20026;-90
2021/07/23 08:32:10;;;;;;;36.40;15.45;;;17.20;99.90;;;;;;4976520;28;20042;-91
2021/07/23 08:34:36;;;;;;;42.78;15.88;;;17.20;99.90;;;;;;4975083;28;20023;-90
2021/07/23 08:37:02;;;;;;;40.20;16.60;;;17.30;99.90;;;;;;4976807;28;20515;-91
2021/07/23 08:39:28;;;;;;;39.17;16.75;;;17.20;99.90;;;;;;4976957;28;20498;-90
2021/07/23 08:41:55;;;;;;;39.67;16.40;;;17.30;99.90;;;;;;4978091;28;20019;-90
2021/07/23 08:44:22;;;;;;;31.10;14.23;;;17.30;99.90;;;;;;4979351;28;20030;-91
2021/07/23 08:46:49;;;;;;;35.47;15.45;;;17.40;99.90;;;;;;4981212;28;20504;-90
2021/07/23 08:49:16;;;;;;;31.10;15.32;;;17.40;99.90;;;;;;4983193;28;20033;-90
2021/07/23 08:51:51;;;;;;;36.50;16.08;;;17.50;99.90;;;;;;4982488;28;20098;-90
2021/07/23 08:54:17;;;;;;;36.40;16.27;;;17.50;99.90;;;;;;4979033;28;20033;-91
2021/07/23 08:56:46;;;;;;;32.00;15.98;;;17.60;99.90;;;;;;4980887;28;20034;-90
2021/07/23 08:59:13;;;;;;;32.13;15.00;;;17.70;99.90;;;;;;4980829;28;20022;-91
2021/07/23 09:01:58;;;;;;;35.65;16.58;;;17.80;99.90;;;;;;4980310;28;20050;-90
2021/07/23 09:04:30;;;;;;;32.80;16.73;;;17.80;99.90;;;;;;4979689;28;20018;-90
2021/07/23 09:07:29;;;;;;;41.45;17.13;;;17.80;99.90;;;;;;4980557;28;20054;-90
2021/07/23 09:09:56;;;;;;;38.58;18.13;;;17.90;99.90;;;;;;4923212;28;20031;-90
2021/07/23 09:12:22;;;;;;;36.25;18.33;;;17.90;99.90;;;;;;4978885;28;20082;-90
2021/07/23 09:14:47;;;;;;;41.30;19.90;;;17.90;99.90;;;;;;4979577;28;20030;-89
2021/07/23 09:17:13;;;;;;;46.42;20.48;;;17.90;99.90;;;;;;4976355;28;20046;-90
2021/07/23 09:19:39;;;;;;;42.88;19.60;;;17.90;99.90;;;;;;4977939;28;20695;-89
2021/07/23 09:22:06;;;;;;;41.28;18.67;;;18.00;99.90;;;;;;4980647;28;20045;-89
2021/07/23 09:24:52;;;;;;;41.47;18.67;;;18.00;99.90;;;;;;4961349;28;20098;-90
2021/07/23 09:27:38;;;;;;;38.40;19.50;;;18.10;99.90;;;;;;4972274;28;20030;-90
2021/07/23 09:30:09;;;;;;;36.72;18.67;;;18.20;99.90;;;;;;4959972;28;20042;-91
2021/07/23 09:32:37;;;;;;;39.72;19.83;;;18.20;99.90;;;;;;4962175;28;20043;-90
2021/07/23 09:35:15;;;;;;;46.35;19.50;;;18.30;99.90;;;;;;4970442;28;20043;-91
2021/07/23 09:38:00;;;;;;;43.15;19.98;;;18.20;99.90;;;;;;4961877;28;20059;-91
2021/07/23 09:40:41;;;;;;;41.47;18.65;;;18.20;99.90;;;;;;4963926;28;20384;-90
2021/07/23 09:43:08;;;;;;;38.65;20.05;;;18.20;99.90;;;;;;4962141;28;20031;-90
2021/07/23 09:45:36;;;;;;;33.70;18.58;;;18.30;99.90;;;;;;4960034;28;20071;-90
2021/07/23 09:48:13;;;;;;;42.20;19.20;;;18.40;99.90;;;;;;4964304;28;20031;-90
2021/07/23 09:50:46;;;;;;;41.90;20.20;;;18.40;99.90;;;;;;4967403;28;20035;-91
2021/07/23 09:53:15;;;;;;;40.15;19.02;;;18.40;99.90;;;;;;4965428;28;20062;-90
2021/07/23 09:55:47;;;;;;;70.93;25.77;;;18.50;99.90;;;;;;4955595;28;20337;-89
2021/07/23 09:58:21;;;;;;;43.72;20.77;;;18.50;99.90;;;;;;4959853;28;20061;-90
2021/07/23 10:00:55;;;;;;;43.53;19.35;;;18.50;99.90;;;;;;4961052;28;20444;-92
2021/07/23 10:03:27;;;;;;;43.03;19.58;;;18.60;99.90;;;;;;4972693;28;20034;-91
2021/07/23 10:06:30;;;;;;;34.25;18.42;;;18.60;99.90;;;;;;4965850;28;20023;-91
2021/07/23 10:09:04;;;;;;;35.08;17.70;;;18.70;99.90;;;;;;4941431;28;20026;-91
2021/07/23 10:11:30;;;;;;;36.15;18.10;;;18.70;99.90;;;;;;4973409;28;20042;-92
2021/07/23 10:13:59;;;;;;;33.53;16.73;;;18.70;99.90;;;;;;4978316;28;20019;-94
2021/07/23 10:16:25;;;;;;;32.95;16.70;;;18.70;99.90;;;;;;4960002;28;20051;-93
2021/07/23 10:18:52;;;;;;;42.13;16.70;;;18.70;99.90;;;;;;4971089;28;20023;-92
2021/07/23 10:21:19;;;;;;;31.27;16.65;;;18.70;99.90;;;;;;4981482;28;20471;-91
2021/07/23 10:23:46;;;;;;;42.45;18.40;;;18.70;99.90;;;;;;4967369;28;20105;-92
2021/07/23 10:26:13;;;;;;;40.70;17.92;;;18.60;99.90;;;;;;4974582;28;20027;-89
2021/07/23 10:28:39;;;;;;;36.90;18.70;;;18.60;99.90;;;;;;4975671;28;20511;-93
2021/07/23 10:31:21;;;;;;;33.03;17.25;;;18.60;99.90;;;;;;4975557;28;20047;-91
2021/07/23 10:33:58;;;;;;;32.53;16.77;;;18.60;99.90;;;;;;4986844;28;20039;-92
2021/07/23 10:36:27;;;;;;;28.40;16.60;;;18.70;99.90;;;;;;4990281;28;20023;-91
2021/07/23 10:39:08;;;;;;;39.10;17.98;;;18.70;99.90;;;;;;4972553;28;20027;-91
2021/07/23 10:41:45;;;;;;;34.95;18.38;;;18.70;99.90;;;;;;4983747;28;20027;-91
2021/07/23 10:44:26;;;;;;;33.40;17.27;;;18.70;99.90;;;;;;4973505;28;20601;-91
2021/07/23 10:46:52;;;;;;;34.92;17.40;;;18.70;99.90;;;;;;4978363;28;20117;-90
2021/07/23 10:49:27;;;;;;;39.22;18.00;;;18.70;99.90;;;;;;4978059;28;20514;-91
2021/07/23 10:51:58;;;;;;;35.53;17.70;;;18.60;99.90;;;;;;5007470;28;20142;-91
2021/07/23 10:54:29;;;;;;;35.67;17.65;;;18.60;99.90;;;;;;4977831;28;20143;-91
2021/07/23 10:56:58;;;;;;;35.10;16.40;;;18.60;99.90;;;;;;4977153;28;20123;-90
2021/07/23 10:59:42;;;;;;;35.35;16.85;;;18.70;99.90;;;;;;4974337;28;20504;-92
2021/07/23 11:02:28;;;;;;;35.67;17.50;;;18.70;99.90;;;;;;4976424;28;20030;-91
2021/07/23 11:05:09;;;;;;;34.72;17.10;;;18.70;99.90;;;;;;4964025;28;20063;-91
2021/07/23 11:07:35;;;;;;;27.13;12.88;;;18.70;99.90;;;;;;4964292;28;20023;-90
2021/07/23 11:10:03;;;;;;;36.10;16.17;;;18.70;99.90;;;;;;4968952;28;20031;-89
2021/07/23 11:12:33;;;;;;;32.58;15.40;;;18.80;99.90;;;;;;4972364;28;20038;-90
2021/07/23 11:15:00;;;;;;;34.55;15.63;;;18.90;99.90;;;;;;4963832;28;20033;-91
2021/07/23 11:17:30;;;;;;;33.03;14.88;;;18.90;99.90;;;;;;4970232;28;20054;-90
2021/07/23 11:20:04;;;;;;;27.87;15.97;;;18.90;99.90;;;;;;4977381;28;20034;-90
2021/07/23 11:22:38;;;;;;;27.27;14.55;;;19.00;99.90;;;;;;4973802;28;20031;-91
2021/07/23 11:25:09;;;;;;;32.17;14.48;;;19.00;99.90;;;;;;4964993;28;20458;-91
2021/07/23 11:27:41;;;;;;;33.05;15.73;;;19.00;99.90;;;;;;4976223;28;20432;-91
2021/07/23 11:30:20;;;;;;;33.67;14.50;;;19.00;99.90;;;;;;4976216;28;20035;-91
2021/07/23 11:32:54;;;;;;;32.35;15.38;;;19.00;99.90;;;;;;4978025;28;20074;-90
2021/07/23 11:35:21;;;;;;;31.00;14.70;;;19.00;99.90;;;;;;4977677;28;20023;-91
2021/07/23 11:37:47;;;;;;;29.40;14.80;;;18.90;99.90;;;;;;4977892;28;20117;-92
2021/07/23 11:40:19;;;;;;;32.05;14.30;;;18.80;99.90;;;;;;4977289;28;20018;-91
2021/07/23 11:42:56;;;;;;;26.30;13.60;;;18.80;99.90;;;;;;4975294;28;20388;-91
2021/07/23 11:45:44;;;;;;;27.35;14.82;;;18.80;99.90;;;;;;4975076;28;20432;-91
2021/07/23 11:48:18;;;;;;;26.92;14.18;;;18.80;99.90;;;;;;4975475;28;20022;-90
2021/07/23 11:50:55;;;;;;;27.25;13.80;;;18.80;99.90;;;;;;4973971;28;20492;-92
2021/07/23 11:53:21;;;;;;;27.08;13.07;;;18.90;99.90;;;;;;4974792;28;20133;-92
2021/07/23 11:55:47;;;;;;;22.02;12.68;;;18.80;99.90;;;;;;4976616;28;20027;-92
2021/07/23 11:58:27;;;;;;;24.02;12.82;;;18.90;99.90;;;;;;4975826;28;20022;-92
2021/07/23 12:00:54;;;;;;;31.55;14.13;;;18.90;99.90;;;;;;4969196;28;20019;-93
2021/07/23 12:03:24;;;;;;;26.42;13.43;;;18.90;99.90;;;;;;4973035;28;20023;-91
2021/07/23 12:05:51;;;;;;;27.65;12.95;;;18.90;99.90;;;;;;4974799;28;20023;-92
2021/07/23 12:08:17;;;;;;;21.63;11.27;;;18.80;99.90;;;;;;4975215;28;20031;-92
2021/07/23 12:10:44;;;;;;;23.90;12.55;;;18.90;99.90;;;;;;4976360;28;20019;-93
2021/07/23 12:13:11;;;;;;;24.80;12.18;;;18.90;99.90;;;;;;4977508;28;20098;-92
2021/07/23 12:15:42;;;;;;;26.00;12.85;;;18.90;99.90;;;;;;4976334;28;20193;-92
2021/07/23 12:18:08;;;;;;;;;;;18.90;99.90;;;;;;4961706;28;20552;-91
2021/07/23 12:20:34;;;;;;;16.55;9.55;;;18.90;99.90;;;;;;4960376;28;20012;-91
2021/07/23 12:23:01;;;;;;;17.40;9.60;;;18.90;99.90;;;;;;4960451;28;20037;-94
2021/07/23 12:25:28;;;;;;;19.85;10.43;;;18.90;99.90;;;;;;4962822;28;20039;-91
2021/07/23 12:28:14;;;;;;;17.85;10.32;;;18.90;99.90;;;;;;4959452;28;20098;-91
2021/07/23 12:30:45;;;;;;;17.25;10.20;;;18.90;99.90;;;;;;4959885;28;20259;-90
2021/07/23 12:33:10;;;;;;;;;;;19.00;99.90;;;;;;4960145;28;20039;-92